Time;durP1;ratioP1;P1;durP2;ratioP2;P2;SDS_P1;SDS_P2;PMS_P1;PMS_P2;Temp;Humidity;BMP_temperature;BMP_pressure;BME280_temperature;BME280_humidity;BME280_pressure;Samples;Min_cycle;Max_cycle;Signal;HPM_P1;HPM_P2
2021/11/21 00:01:00;;;;;;;27.60;13.82;;;;;;;8.07;78.88;97913.25;4989966;28;20578;-63
2021/11/21 00:03:25;;;;;;;25.67;14.30;;;;;;;7.90;80.48;97903.41;4992268;28;20049;-61
2021/11/21 00:05:57;;;;;;;24.10;13.30;;;;;;;8.12;79.42;97900.09;4990101;28;20030;-61
2021/11/21 00:08:23;;;;;;;26.88;14.43;;;;;;;8.07;79.19;97889.03;4996362;28;20029;-61
2021/11/21 00:10:59;;;;;;;24.75;12.82;;;;;;;8.13;80.68;97883.63;4990159;28;20041;-62
2021/11/21 00:13:27;;;;;;;32.00;16.33;;;;;;;7.88;80.78;97876.63;4991742;28;20022;-62
2021/11/21 00:16:01;;;;;;;25.38;13.70;;;;;;;7.86;80.11;97869.78;4990780;28;20040;-63
2021/11/21 00:18:26;;;;;;;25.60;14.18;;;;;;;7.96;81.39;97866.00;4993013;28;20133;-61
2021/11/21 00:20:54;;;;;;;27.20;14.63;;;;;;;7.93;80.02;97857.44;4991284;28;20042;-62
2021/11/21 00:23:23;;;;;;;28.15;16.63;;;;;;;7.66;78.96;97849.63;4972849;28;20076;-61
2021/11/21 00:26:05;;;;;;;28.98;15.57;;;;;;;7.80;79.90;97836.22;4990237;28;20121;-61
2021/11/21 00:28:30;;;;;;;27.33;15.60;;;;;;;8.20;77.88;97840.09;4991317;28;20030;-61
2021/11/21 00:30:56;;;;;;;18.38;8.55;;;;;;;8.41;83.67;97839.34;4991392;28;20053;-62
2021/11/21 00:33:27;;;;;;;27.33;14.65;;;;;;;8.10;81.89;97839.56;4995376;28;20034;-62
2021/11/21 00:35:52;;;;;;;24.88;12.75;;;;;;;7.80;82.40;97828.44;4990509;28;20030;-62
2021/11/21 00:38:18;;;;;;;25.95;15.20;;;;;;;7.82;78.90;97822.28;4991475;28;20022;-62
2021/11/21 00:40:43;;;;;;;30.55;17.02;;;;;;;7.59;79.11;97824.78;4990739;28;20045;-64
2021/11/21 00:43:09;;;;;;;29.10;16.50;;;;;;;7.72;80.07;97816.56;4992103;28;20643;-63
2021/11/21 00:45:35;;;;;;;28.77;15.55;;;;;;;7.97;79.18;97815.72;4989406;28;20121;-64
2021/11/21 00:48:03;;;;;;;26.92;15.10;;;;;;;7.69;80.92;97814.03;4990661;28;20113;-63
2021/11/21 00:50:32;;;;;;;28.83;15.63;;;;;;;7.62;80.46;97809.94;4993299;28;20045;-61
2021/11/21 00:53:04;;;;;;;30.10;16.73;;;;;;;7.76;78.33;97813.88;4988983;28;20045;-61
2021/11/21 00:55:39;;;;;;;27.70;14.95;;;;;;;8.25;78.63;97818.25;4991076;28;20084;-60
2021/11/21 00:58:10;;;;;;;31.65;16.88;;;;;;;7.93;78.95;97823.69;4990102;28;20366;-61
2021/11/21 01:00:38;;;;;;;27.27;14.77;;;;;;;7.93;80.68;97821.09;4990814;28;20117;-61
2021/11/21 01:03:05;;;;;;;21.42;10.82;;;;;;;8.26;81.50;97819.94;4990164;28;20127;-63
2021/11/21 01:05:31;;;;;;;28.25;15.48;;;;;;;7.91;81.19;97818.53;4991752;28;20061;-61
2021/11/21 01:08:04;;;;;;;29.33;15.68;;;;;;;7.69;82.03;97816.63;4992402;28;20172;-64
2021/11/21 01:10:33;;;;;;;27.00;15.32;;;;;;;8.33;83.28;97818.00;4991116;28;20400;-62
2021/11/21 01:13:08;;;;;;;27.98;14.10;;;;;;;8.24;83.70;97815.72;4991063;28;20504;-61
2021/11/21 01:15:35;;;;;;;26.95;15.35;;;;;;;7.97;82.34;97807.94;5000316;28;20065;-61
2021/11/21 01:18:03;;;;;;;29.92;15.30;;;;;;;8.06;78.70;97809.38;4992315;28;20064;-61
2021/11/21 01:20:38;;;;;;;30.80;17.48;;;;;;;8.06;78.68;97809.38;4986645;28;20157;-61
2021/11/21 01:23:13;;;;;;;24.80;13.90;;;;;;;8.21;80.61;97806.25;4989655;28;20026;-61
2021/11/21 01:25:46;;;;;;;29.38;16.80;;;;;;;7.58;80.21;97813.53;4987689;28;20046;-63
2021/11/21 01:28:13;;;;;;;26.90;15.48;;;;;;;7.63;80.74;97808.22;4990921;28;20025;-63
2021/11/21 01:30:59;;;;;;;28.27;16.33;;;;;;;7.73;80.71;97807.00;4990197;28;20570;-63
2021/11/21 01:33:24;;;;;;;33.88;18.00;;;;;;;7.78;78.69;97805.13;4988982;28;20132;-63
2021/11/21 01:35:52;;;;;;;28.05;16.30;;;;;;;7.70;78.82;97802.78;4989751;28;20038;-61
2021/11/21 01:38:19;;;;;;;27.63;16.67;;;;;;;8.04;79.01;97800.81;4989659;28;20038;-61
2021/11/21 01:40:48;;;;;;;28.17;16.63;;;;;;;7.72;79.32;97794.94;4988857;28;20038;-63
2021/11/21 01:43:14;;;;;;;27.95;15.85;;;;;;;7.95;78.47;97786.38;4990414;28;20027;-61
2021/11/21 01:45:40;;;;;;;27.50;16.42;;;;;;;7.89;78.65;97792.63;4989459;28;20030;-64
2021/11/21 01:48:06;;;;;;;25.73;16.05;;;;;;;7.83;78.59;97790.25;4997095;28;20042;-64
2021/11/21 01:50:35;;;;;;;27.38;16.15;;;;;;;7.81;78.44;97783.38;4987069;28;20055;-61
2021/11/21 01:53:02;;;;;;;30.52;15.60;;;;;;;7.76;79.14;97780.94;4988743;28;20101;-63
2021/11/21 01:55:28;;;;;;;28.60;16.23;;;;;;;7.42;79.46;97776.84;4990199;28;20062;-63
2021/11/21 01:57:54;;;;;;;22.67;13.90;;;;;;;7.67;79.68;97771.72;4991802;28;20492;-61
2021/11/21 02:00:21;;;;;;;23.30;14.00;;;;;;;8.03;78.73;97778.31;4989966;28;20045;-64
2021/11/21 02:02:47;;;;;;;25.52;14.85;;;;;;;7.88;78.04;97775.38;4990898;28;20025;-62
2021/11/21 02:05:12;;;;;;;16.83;9.18;;;;;;;8.30;83.22;97777.34;4990683;28;20021;-61
2021/11/21 02:07:52;;;;;;;20.65;12.20;;;;;;;8.46;80.06;97784.66;4990370;28;20026;-63
2021/11/21 02:10:22;;;;;;;20.45;13.05;;;;;;;7.51;78.86;97766.16;4989253;28;20676;-62
2021/11/21 02:12:48;;;;;;;19.00;12.32;;;;;;;7.72;79.80;97762.03;4990910;28;20047;-61
2021/11/21 02:15:18;;;;;;;20.08;12.90;;;;;;;8.11;79.38;97765.94;4995681;28;20091;-61
2021/11/21 02:17:44;;;;;;;18.33;11.98;;;;;;;7.95;78.26;97759.56;4988323;28;20034;-63
2021/11/21 02:20:14;;;;;;;21.45;13.07;;;;;;;7.73;78.79;97760.28;4987885;28;20022;-62
2021/11/21 02:22:41;;;;;;;19.10;12.18;;;;;;;7.62;78.26;97757.19;4990010;28;20018;-61
2021/11/21 02:25:09;;;;;;;20.55;12.82;;;;;;;7.56;79.44;97752.22;4987608;28;20033;-61
2021/11/21 02:27:41;;;;;;;18.77;11.88;;;;;;;7.75;79.04;97750.69;4989041;28;20768;-61
2021/11/21 02:30:09;;;;;;;21.63;12.70;;;;;;;7.60;79.12;97739.06;4990959;28;20511;-64
2021/11/21 02:32:37;;;;;;;20.73;12.25;;;;;;;8.13;75.78;97740.72;4991946;28;20099;-61
2021/11/21 02:35:03;;;;;;;18.85;11.73;;;;;;;7.51;78.29;97724.63;4993570;28;20033;-61
2021/11/21 02:37:32;;;;;;;19.27;12.43;;;;;;;7.67;78.57;97731.94;4994033;28;20030;-60
2021/11/21 02:39:57;;;;;;;18.20;11.88;;;;;;;7.21;79.12;97730.84;4993539;28;20084;-63
2021/11/21 02:42:35;;;;;;;18.52;11.93;;;;;;;7.26;81.35;97728.94;4993950;28;20038;-61
2021/11/21 02:45:04;;;;;;;19.20;12.30;;;;;;;7.50;81.68;97717.78;4996143;28;20030;-61
2021/11/21 02:47:33;;;;;;;19.50;11.75;;;;;;;7.42;79.85;97711.97;5001654;28;20065;-62
2021/11/21 02:50:03;;;;;;;24.02;12.18;;;;;;;7.49;81.30;97710.03;4991866;28;20026;-63
2021/11/21 02:52:30;;;;;;;18.80;12.07;;;;;;;7.49;81.43;97708.28;4990013;28;20092;-60
2021/11/21 02:54:57;;;;;;;17.15;11.00;;;;;;;7.60;80.08;97704.47;4991308;28;20073;-60
2021/11/21 02:57:24;;;;;;;16.90;11.35;;;;;;;7.25;78.82;97696.13;4993625;28;20042;-60
2021/11/21 02:59:50;;;;;;;14.13;9.05;;;;;;;7.60;80.77;97691.50;4994236;28;20109;-59
2021/11/21 03:02:18;;;;;;;18.15;11.52;;;;;;;7.55;78.20;97690.81;4993165;28;20038;-60
2021/11/21 03:04:45;;;;;;;19.15;11.38;;;;;;;7.13;80.72;97677.47;5002698;28;20026;-62
2021/11/21 03:07:10;;;;;;;19.00;11.38;;;;;;;7.62;79.75;97674.13;4994507;28;20813;-62
2021/11/21 03:09:36;;;;;;;20.63;12.15;;;;;;;7.31;79.58;97670.81;4991989;28;20034;-60
2021/11/21 03:12:01;;;;;;;19.23;11.75;;;;;;;7.91;79.22;97666.16;4992555;28;20130;-60
2021/11/21 03:14:27;;;;;;;19.17;12.13;;;;;;;7.13;81.00;97667.09;4995080;28;20072;-62
2021/11/21 03:16:53;;;;;;;16.80;10.10;;;;;;;7.98;78.55;97655.56;4997124;28;20042;-59
2021/11/21 03:19:18;;;;;;;17.48;11.18;;;;;;;7.37;80.39;97656.81;4992217;28;20104;-60
2021/11/21 03:21:44;;;;;;;18.77;11.57;;;;;;;7.37;80.46;97649.03;4987348;28;20668;-61
2021/11/21 03:24:10;;;;;;;19.80;11.98;;;;;;;7.47;85.33;97641.75;4992522;28;20027;-60
2021/11/21 03:26:35;;;;;;;18.95;11.30;;;;;;;6.99;85.55;97637.31;4993673;28;20061;-61
2021/11/21 03:29:01;;;;;;;19.02;11.95;;;;;;;6.85;82.12;97630.81;4992278;28;20034;-63
2021/11/21 03:31:27;;;;;;;19.33;11.27;;;;;;;7.24;86.39;97634.75;4991166;28;20047;-65
2021/11/21 03:33:52;;;;;;;20.30;12.02;;;;;;;7.26;82.35;97630.34;4995125;28;20030;-60
2021/11/21 03:36:18;;;;;;;17.55;10.43;;;;;;;7.98;80.19;97634.81;4991953;28;20113;-60
2021/11/21 03:38:43;;;;;;;20.33;12.05;;;;;;;7.25;83.26;97633.88;4993846;28;20030;-62
2021/11/21 03:41:09;;;;;;;20.52;12.38;;;;;;;7.18;83.01;97643.59;4992631;28;20062;-60
2021/11/21 03:43:35;;;;;;;21.60;11.63;;;;;;;7.15;84.82;97638.50;4992811;28;20113;-60
2021/11/21 03:46:00;;;;;;;21.80;12.55;;;;;;;6.84;82.97;97643.84;4992057;28;20596;-60
2021/11/21 03:48:26;;;;;;;19.38;11.60;;;;;;;7.57;83.43;97640.53;4994420;28;20064;-60
2021/11/21 03:50:52;;;;;;;20.30;9.90;;;;;;;7.82;80.15;97640.53;4987833;28;20026;-60
2021/11/21 03:53:18;;;;;;;23.92;12.70;;;;;;;7.52;79.46;97653.69;4990975;28;20430;-60
2021/11/21 03:55:44;;;;;;;19.75;12.07;;;;;;;7.72;82.98;97636.59;4991206;28;20031;-61
2021/11/21 03:58:10;;;;;;;20.33;12.30;;;;;;;7.41;80.33;97635.03;4993472;28;20029;-61
2021/11/21 04:00:36;;;;;;;21.70;12.20;;;;;;;7.50;80.93;97628.69;4992264;28;20034;-60
2021/11/21 04:03:02;;;;;;;22.70;12.70;;;;;;;7.40;84.87;97628.16;4994881;28;20022;-60
2021/11/21 04:05:27;;;;;;;21.65;12.70;;;;;;;7.33;84.25;97619.75;4991665;28;21100;-61
2021/11/21 04:07:53;;;;;;;17.33;9.30;;;;;;;7.88;83.31;97624.75;4993699;28;20535;-61
2021/11/21 04:10:18;;;;;;;21.95;11.13;;;;;;;7.39;87.20;97617.81;4993230;28;20034;-61
2021/11/21 04:12:44;;;;;;;22.40;11.70;;;;;;;7.33;84.22;97611.09;4991553;28;20037;-61
2021/11/21 04:15:10;;;;;;;19.88;11.15;;;;;;;7.36;88.20;97603.22;4999149;28;20056;-59
2021/11/21 04:17:37;;;;;;;26.40;12.77;;;;;;;6.93;84.16;97599.47;4991359;28;20419;-59
2021/11/21 04:20:04;;;;;;;22.77;12.23;;;;;;;6.90;84.02;97596.97;4990327;28;20500;-62
2021/11/21 04:22:29;;;;;;;22.63;12.00;;;;;;;7.04;84.71;97597.38;4990965;28;20587;-59
2021/11/21 04:24:57;;;;;;;23.25;11.85;;;;;;;6.92;88.04;97600.38;4992758;28;20036;-62
2021/11/21 04:27:25;;;;;;;21.80;11.10;;;;;;;7.20;88.58;97600.28;4992009;28;20072;-61
2021/11/21 04:29:50;;;;;;;25.38;12.23;;;;;;;7.22;85.80;97602.81;4993042;28;20080;-60
2021/11/21 04:32:16;;;;;;;24.40;12.35;;;;;;;6.90;85.40;97596.97;4991805;28;20073;-59
2021/11/21 04:34:41;;;;;;;24.40;12.60;;;;;;;7.14;82.97;97592.72;4996147;28;20030;-61
2021/11/21 04:37:07;;;;;;;24.17;11.73;;;;;;;7.05;84.45;97595.63;4990304;28;20510;-60
2021/11/21 04:39:32;;;;;;;23.13;12.20;;;;;;;7.02;84.86;97586.22;4992784;28;20555;-59
2021/11/21 04:41:57;;;;;;;25.23;12.48;;;;;;;7.32;82.51;97588.66;4998211;28;20035;-60
2021/11/21 04:44:23;;;;;;;27.25;11.88;;;;;;;6.65;88.90;97587.38;4990774;28;20089;-59
2021/11/21 04:46:49;;;;;;;28.75;12.52;;;;;;;6.73;88.09;97582.81;4992744;28;20042;-63
2021/11/21 04:49:15;;;;;;;20.52;11.30;;;;;;;7.16;85.48;97579.69;4992891;28;20025;-60
2021/11/21 04:51:41;;;;;;;24.63;11.82;;;;;;;7.28;86.76;97582.72;4988608;28;20637;-63
2021/11/21 04:54:12;;;;;;;26.73;12.88;;;;;;;6.72;87.75;97577.66;4988987;28;20475;-63
2021/11/21 04:56:37;;;;;;;27.25;13.07;;;;;;;6.67;87.37;97569.19;4994448;28;20057;-61
2021/11/21 04:59:03;;;;;;;27.23;11.85;;;;;;;6.94;87.09;97568.28;4992959;28;20106;-61
2021/11/21 05:01:28;;;;;;;28.02;13.00;;;;;;;6.93;88.12;97569.19;4991654;28;20032;-62
2021/11/21 05:03:54;;;;;;;24.50;12.15;;;;;;;6.58;91.19;97575.53;4991819;28;20030;-61
2021/11/21 05:06:19;;;;;;;19.63;8.70;;;;;;;7.02;93.75;97570.66;4991728;28;20042;-62
2021/11/21 05:08:45;;;;;;;18.20;7.78;;;;;;;7.17;91.31;97569.28;4991345;28;20038;-61
2021/11/21 05:11:10;;;;;;;29.85;12.50;;;;;;;6.81;92.13;97566.16;4991814;28;20129;-61
2021/11/21 05:13:36;;;;;;;28.20;12.27;;;;;;;6.48;91.08;97561.16;4991262;28;20030;-60
2021/11/21 05:16:01;;;;;;;25.27;11.10;;;;;;;6.69;91.21;97557.03;4991260;28;20482;-60
2021/11/21 05:18:27;;;;;;;30.92;13.38;;;;;;;6.41;91.95;97557.06;4989494;28;20026;-60
2021/11/21 05:20:52;;;;;;;27.95;12.65;;;;;;;6.56;91.87;97552.25;4987104;28;20034;-59
2021/11/21 05:23:17;;;;;;;24.33;11.20;;;;;;;6.58;93.92;97549.63;4997473;28;20030;-60
2021/11/21 05:25:43;;;;;;;25.58;11.32;;;;;;;6.22;92.09;97554.22;4991034;28;20682;-60
2021/11/21 05:28:08;;;;;;;24.02;10.68;;;;;;;6.45;92.69;97553.47;4992005;28;20106;-62
2021/11/21 05:30:34;;;;;;;23.88;10.82;;;;;;;6.71;88.21;97553.50;4992757;28;20033;-61
2021/11/21 05:32:59;;;;;;;22.85;9.98;;;;;;;6.99;87.59;97560.38;5000542;28;20037;-62
2021/11/21 05:35:24;;;;;;;21.25;10.18;;;;;;;6.85;87.89;97549.59;4992411;28;20042;-59
2021/11/21 05:37:51;;;;;;;24.77;11.15;;;;;;;6.86;88.42;97553.91;4993178;28;20404;-60
2021/11/21 05:40:18;;;;;;;26.45;11.27;;;;;;;6.65;90.12;97548.50;4990227;28;20038;-63
2021/11/21 05:42:44;;;;;;;29.55;12.68;;;;;;;6.77;87.49;97546.44;4991004;28;20060;-63
2021/11/21 05:45:10;;;;;;;24.92;12.55;;;;;;;6.67;86.34;97546.75;4990260;28;20058;-60
2021/11/21 05:47:35;;;;;;;21.05;8.73;;;;;;;7.03;90.30;97546.41;4990827;28;20088;-62
2021/11/21 05:50:01;;;;;;;28.80;11.32;;;;;;;6.63;93.81;97546.88;4989839;28;20480;-62
2021/11/21 05:52:26;;;;;;;30.45;12.55;;;;;;;6.10;91.58;97537.28;4989393;28;20042;-60
2021/11/21 05:54:52;;;;;;;25.85;11.93;;;;;;;6.31;93.86;97534.03;4989299;28;20030;-61
2021/11/21 05:57:18;;;;;;;26.95;12.48;;;;;;;6.73;89.23;97537.91;4989405;28;20840;-63
2021/11/21 05:59:44;;;;;;;24.02;10.57;;;;;;;6.66;91.56;97532.06;4991389;28;20483;-61
2021/11/21 06:02:09;;;;;;;26.08;11.20;;;;;;;6.31;91.83;97531.47;4992181;28;20456;-64
2021/11/21 06:04:35;;;;;;;26.50;11.25;;;;;;;6.68;90.19;97529.44;4988744;28;20128;-61
2021/11/21 06:07:01;;;;;;;25.02;10.93;;;;;;;6.67;90.46;97544.16;4988679;28;20037;-63
2021/11/21 06:09:26;;;;;;;25.27;11.27;;;;;;;6.55;91.65;97534.16;4989272;28;20095;-63
2021/11/21 06:11:54;;;;;;;21.45;10.95;;;;;;;6.57;90.05;97540.16;4988548;28;20526;-64
2021/11/21 06:14:20;;;;;;;27.08;11.15;;;;;;;6.36;90.72;97539.09;4987870;28;20037;-62
2021/11/21 06:16:45;;;;;;;24.90;10.50;;;;;;;6.60;91.13;97532.28;4989428;28;20038;-62
2021/11/21 06:19:11;;;;;;;25.75;10.85;;;;;;;6.70;90.28;97528.47;4989750;28;20030;-64
2021/11/21 06:21:36;;;;;;;23.70;9.40;;;;;;;6.91;91.65;97536.44;4986009;28;20034;-62
2021/11/21 06:24:02;;;;;;;23.23;10.77;;;;;;;6.54;89.49;97533.31;4989158;28;20041;-63
2021/11/21 06:26:28;;;;;;;24.27;11.10;;;;;;;6.51;88.07;97527.41;4989633;28;20068;-61
2021/11/21 06:28:53;;;;;;;21.80;8.82;;;;;;;7.21;91.17;97523.34;4990475;28;20030;-63
2021/11/21 06:31:20;;;;;;;24.55;11.15;;;;;;;6.40;90.30;97530.31;4989373;28;20038;-62
2021/11/21 06:33:45;;;;;;;25.83;11.02;;;;;;;6.52;91.29;97529.06;4987643;28;20027;-59
2021/11/21 06:36:11;;;;;;;24.70;11.45;;;;;;;6.71;90.29;97530.19;4990673;28;20096;-60
2021/11/21 06:38:36;;;;;;;25.77;11.68;;;;;;;6.57;88.95;97528.03;4994565;28;20526;-61
2021/11/21 06:41:01;;;;;;;21.80;10.48;;;;;;;6.41;91.18;97521.63;4989553;28;20046;-61
2021/11/21 06:43:27;;;;;;;25.20;11.40;;;;;;;6.54;90.38;97529.88;4989880;28;20037;-60
2021/11/21 06:45:52;;;;;;;22.45;9.95;;;;;;;6.50;93.03;97525.69;4987301;28;20086;-60
2021/11/21 06:48:21;;;;;;;22.30;9.68;;;;;;;6.77;92.46;97523.09;4991334;28;20026;-60
2021/11/21 06:50:53;;;;;;;24.42;10.50;;;;;;;6.88;91.45;97531.38;4987849;28;20073;-60
2021/11/21 06:53:19;;;;;;;25.35;10.63;;;;;;;6.73;90.16;97528.38;4987317;28;20391;-60
2021/11/21 06:55:45;;;;;;;21.70;10.65;;;;;;;6.62;89.35;97530.50;4990323;28;20595;-62
2021/11/21 06:58:10;;;;;;;22.40;10.13;;;;;;;6.73;90.87;97528.38;4989376;28;20152;-63
2021/11/21 07:00:36;;;;;;;19.70;9.05;;;;;;;7.12;90.58;97533.13;4990117;28;20034;-62
2021/11/21 07:03:01;;;;;;;23.13;9.40;;;;;;;6.91;90.92;97532.13;4990636;28;20030;-60
2021/11/21 07:05:28;;;;;;;21.13;8.98;;;;;;;6.73;90.42;97536.16;4984563;28;20057;-60
2021/11/21 07:07:54;;;;;;;20.50;9.30;;;;;;;6.63;88.53;97550.31;4998170;28;20034;-63
2021/11/21 07:10:19;;;;;;;18.17;8.48;;;;;;;6.99;87.95;97560.38;4987410;28;20515;-60
2021/11/21 07:12:45;;;;;;;13.05;6.88;;;;;;;7.88;95.93;97552.03;4988434;28;20194;-60
2021/11/21 07:15:16;;;;;;;18.20;8.50;;;;;;;7.10;89.44;97550.47;4988357;28;20412;-62
2021/11/21 07:17:42;;;;;;;17.33;8.85;;;;;;;6.67;88.21;97553.66;4989676;28;20151;-60
2021/11/21 07:20:14;;;;;;;17.27;7.70;;;;;;;6.38;86.70;97547.66;4991106;28;20105;-62
2021/11/21 07:22:41;;;;;;;16.15;7.85;;;;;;;6.57;87.11;97542.75;4991801;28;20083;-62
2021/11/21 07:25:07;;;;;;;11.88;5.78;;;;;;;6.80;86.15;97544.59;4999632;28;21026;-61
2021/11/21 07:27:32;;;;;;;15.07;7.15;;;;;;;6.71;85.62;97543.13;4992591;28;20145;-62
2021/11/21 07:29:58;;;;;;;13.75;6.80;;;;;;;7.17;86.16;97534.69;4992465;28;20113;-64
2021/11/21 07:32:24;;;;;;;15.55;7.18;;;;;;;6.40;85.51;97540.69;4992685;28;20046;-61
2021/11/21 07:34:49;;;;;;;14.30;6.20;;;;;;;6.77;90.57;97543.84;4992370;28;20088;-61
2021/11/21 07:37:15;;;;;;;11.75;5.65;;;;;;;6.90;87.11;97539.94;4993360;28;20103;-60
2021/11/21 07:39:40;;;;;;;18.13;7.55;;;;;;;6.22;87.18;97536.09;4991183;28;20137;-61
2021/11/21 07:42:06;;;;;;;13.73;6.40;;;;;;;6.78;85.89;97541.19;5003597;28;20022;-62
2021/11/21 07:44:32;;;;;;;15.43;7.00;;;;;;;6.79;85.54;97537.69;4991101;28;20530;-63
2021/11/21 07:46:58;;;;;;;14.40;6.07;;;;;;;7.10;84.04;97536.66;4992505;28;20037;-59
2021/11/21 07:49:23;;;;;;;12.48;5.90;;;;;;;6.84;89.51;97537.56;4992012;28;20063;-62
2021/11/21 07:51:48;;;;;;;12.77;6.38;;;;;;;6.43;84.84;97542.31;4989324;28;20198;-61
2021/11/21 07:54:14;;;;;;;12.30;5.90;;;;;;;6.65;82.78;97545.91;4992635;28;20096;-62
2021/11/21 07:56:40;;;;;;;15.05;6.30;;;;;;;6.03;86.55;97544.41;4992845;28;20401;-59
2021/11/21 07:59:05;;;;;;;14.68;6.53;;;;;;;6.42;84.17;97544.06;4991699;28;20117;-61
2021/11/21 08:01:31;;;;;;;13.10;6.18;;;;;;;6.72;85.45;97547.41;4989104;28;20049;-61
2021/11/21 08:03:56;;;;;;;16.25;7.05;;;;;;;6.54;83.65;97542.81;4993480;28;20058;-63
2021/11/21 08:06:22;;;;;;;15.88;7.75;;;;;;;6.02;86.92;97547.03;4991417;28;20046;-61
2021/11/21 08:08:47;;;;;;;19.10;7.38;;;;;;;6.36;83.64;97539.09;4991218;28;20022;-62
2021/11/21 08:11:13;;;;;;;13.23;6.20;;;;;;;7.03;86.03;97549.00;4991735;28;20643;-59
2021/11/21 08:13:40;;;;;;;13.90;6.90;;;;;;;6.43;85.97;97543.16;4989483;28;20026;-61
2021/11/21 08:16:06;;;;;;;11.95;6.13;;;;;;;6.21;85.19;97548.16;4989031;28;20128;-60
2021/11/21 08:18:31;;;;;;;11.05;5.72;;;;;;;6.60;84.07;97553.00;4991517;28;20460;-60
2021/11/21 08:20:57;;;;;;;12.98;6.18;;;;;;;6.79;81.91;97552.41;4991072;28;20137;-59
2021/11/21 08:23:23;;;;;;;11.18;6.07;;;;;;;6.70;86.67;97548.38;4990593;28;20026;-64
2021/11/21 08:25:49;;;;;;;12.60;6.03;;;;;;;6.61;85.22;97544.31;4990910;28;20085;-63
2021/11/21 08:28:14;;;;;;;15.02;6.40;;;;;;;6.74;84.56;97545.59;5000639;28;20109;-61
2021/11/21 08:30:40;;;;;;;11.27;5.43;;;;;;;6.77;82.58;97543.84;4990419;28;20124;-60
2021/11/21 08:33:07;;;;;;;12.55;5.93;;;;;;;6.99;88.65;97539.63;4991864;28;20026;-61
2021/11/21 08:35:33;;;;;;;11.60;5.75;;;;;;;6.56;83.38;97541.03;4990255;28;20070;-63
2021/11/21 08:37:59;;;;;;;11.93;5.70;;;;;;;7.27;86.57;97543.84;4991532;28;20030;-61
2021/11/21 08:40:28;;;;;;;13.82;6.53;;;;;;;6.74;83.69;97535.25;5005572;28;20208;-59
2021/11/21 08:42:55;;;;;;;12.82;6.15;;;;;;;6.32;86.40;97535.75;4992476;28;20078;-59
2021/11/21 08:45:21;;;;;;;10.45;5.55;;;;;;;6.59;89.70;97534.91;4992545;28;20917;-60
2021/11/21 08:47:46;;;;;;;12.73;6.80;;;;;;;6.73;83.79;97533.56;4991691;28;20027;-60
2021/11/21 08:50:12;;;;;;;12.98;6.43;;;;;;;6.38;85.76;97532.13;4990707;28;20033;-60
2021/11/21 08:52:37;;;;;;;13.80;7.03;;;;;;;6.45;83.99;97527.56;4992140;28;20476;-62
2021/11/21 08:55:04;;;;;;;13.05;6.43;;;;;;;6.84;85.16;97540.16;4990958;28;20040;-61
2021/11/21 08:57:30;;;;;;;13.90;7.00;;;;;;;6.81;83.31;97530.72;4991183;28;20018;-60
2021/11/21 08:59:56;;;;;;;14.38;7.00;;;;;;;6.57;84.89;97532.38;4990855;28;20026;-59
2021/11/21 09:02:21;;;;;;;14.43;6.80;;;;;;;6.82;83.47;97540.19;4991185;28;20034;-62
2021/11/21 09:04:46;;;;;;;13.07;6.40;;;;;;;6.57;84.28;97537.56;4991969;28;20167;-59
2021/11/21 09:07:12;;;;;;;14.05;6.93;;;;;;;6.42;84.26;97536.31;4989147;28;20048;-60
2021/11/21 09:09:37;;;;;;;12.40;6.38;;;;;;;6.22;85.77;97531.75;4990241;28;20439;-62
2021/11/21 09:12:03;;;;;;;13.70;6.45;;;;;;;6.54;84.76;97537.66;4990202;28;20042;-59
2021/11/21 09:14:29;;;;;;;12.50;6.20;;;;;;;6.50;84.79;97536.06;4993881;28;20019;-60
2021/11/21 09:16:54;;;;;;;12.57;6.20;;;;;;;6.65;86.05;97539.91;4991187;28;20416;-62
2021/11/21 09:19:20;;;;;;;14.00;6.70;;;;;;;6.62;84.62;97540.00;4991508;28;20019;-60
2021/11/21 09:21:46;;;;;;;13.30;6.57;;;;;;;6.72;86.78;97542.22;4987636;28;20672;-61
2021/11/21 09:24:11;;;;;;;14.57;6.70;;;;;;;6.52;86.82;97539.44;4988473;28;20030;-60
2021/11/21 09:26:37;;;;;;;14.40;7.13;;;;;;;6.77;84.57;97533.47;4990385;28;20053;-63
2021/11/21 09:29:03;;;;;;;11.98;6.30;;;;;;;6.72;84.48;97536.19;5007126;28;20033;-61
2021/11/21 09:31:29;;;;;;;15.95;7.20;;;;;;;6.82;84.02;97536.72;4988242;28;20072;-60
2021/11/21 09:33:54;;;;;;;13.07;6.50;;;;;;;6.98;82.49;97537.06;4990041;28;20029;-62
2021/11/21 09:36:20;;;;;;;13.48;7.00;;;;;;;6.22;84.66;97533.50;4992144;28;20042;-60
2021/11/21 09:38:46;;;;;;;15.20;7.43;;;;;;;7.03;83.29;97527.41;4988538;28;20029;-60
2021/11/21 09:41:12;;;;;;;13.55;7.00;;;;;;;7.46;80.28;97529.34;4989777;28;20031;-60
2021/11/21 09:43:40;;;;;;;13.75;6.75;;;;;;;7.21;84.74;97528.53;4991956;28;20668;-61
2021/11/21 09:46:07;;;;;;;14.60;7.57;;;;;;;6.60;84.62;97527.09;4989350;28;20048;-59
2021/11/21 09:48:33;;;;;;;16.45;7.43;;;;;;;7.43;79.96;97524.25;4989841;28;20025;-61
2021/11/21 09:51:00;;;;;;;17.10;7.50;;;;;;;7.25;79.99;97525.75;4990266;28;20042;-59
2021/11/21 09:53:25;;;;;;;15.85;7.30;;;;;;;7.18;82.90;97533.81;4989299;28;20037;-60
2021/11/21 09:55:51;;;;;;;16.55;7.53;;;;;;;7.29;80.26;97524.72;4990179;28;20404;-60
2021/11/21 09:58:17;;;;;;;13.85;7.15;;;;;;;7.44;83.45;97523.34;4991450;28;20030;-60
2021/11/21 10:00:42;;;;;;;16.70;8.00;;;;;;;7.00;81.40;97514.53;4989085;28;20030;-61
2021/11/21 10:03:14;;;;;;;21.13;9.38;;;;;;;6.73;82.24;97522.38;4990545;28;20061;-60
2021/11/21 10:05:46;;;;;;;16.90;8.02;;;;;;;7.12;83.17;97514.13;4989610;28;20075;-61
2021/11/21 10:08:20;;;;;;;20.85;8.15;;;;;;;7.04;80.80;97510.94;4990001;28;20834;-59
2021/11/21 10:10:47;;;;;;;18.83;8.15;;;;;;;7.19;81.25;97515.59;4989417;28;20064;-61
2021/11/21 10:13:34;;;;;;;16.73;7.82;;;;;;;7.09;80.91;97509.88;4989425;28;20029;-59
2021/11/21 10:16:18;;;;;;;14.65;7.32;;;;;;;7.21;81.34;97498.22;4989200;28;20049;-59
2021/11/21 10:18:45;;;;;;;17.15;8.27;;;;;;;6.88;81.67;97497.66;4993802;28;20073;-60
2021/11/21 10:21:11;;;;;;;18.23;8.25;;;;;;;7.20;79.93;97495.69;4982503;28;20049;-59
2021/11/21 10:23:36;;;;;;;15.98;7.72;;;;;;;7.31;79.27;97490.97;4986940;28;20033;-63
2021/11/21 10:26:02;;;;;;;17.83;8.38;;;;;;;7.50;80.82;97494.59;4989089;28;20041;-60
2021/11/21 10:28:31;;;;;;;15.48;7.88;;;;;;;7.78;77.81;97492.72;4989333;28;20472;-60
2021/11/21 10:31:01;;;;;;;15.93;8.13;;;;;;;7.66;78.59;97483.63;4988770;28;20053;-59
2021/11/21 10:33:43;;;;;;;19.02;8.40;;;;;;;7.13;83.79;97493.31;4988880;28;20382;-60
2021/11/21 10:36:19;;;;;;;17.35;8.73;;;;;;;7.37;80.57;97485.56;4991572;28;20322;-63
2021/11/21 10:39:11;;;;;;;14.45;7.55;;;;;;;7.25;84.59;97486.00;4991659;28;20026;-61
2021/11/21 10:41:44;;;;;;;14.75;7.57;;;;;;;7.28;81.67;97484.16;4985259;28;20042;-60
2021/11/21 10:44:13;;;;;;;16.20;7.72;;;;;;;7.47;80.94;97476.53;4988129;28;20484;-60
2021/11/21 10:46:40;;;;;;;15.85;7.50;;;;;;;7.85;81.86;97476.84;4987204;28;20042;-60
2021/11/21 10:49:30;;;;;;;14.32;6.55;;;;;;;7.68;82.29;97479.22;4989644;28;20041;-59
2021/11/21 10:51:58;;;;;;;13.00;6.55;;;;;;;7.88;79.14;97474.13;4990317;28;20613;-59
2021/11/21 10:54:27;;;;;;;13.82;6.80;;;;;;;7.39;78.76;97469.91;4992979;28;20113;-59
2021/11/21 10:56:55;;;;;;;13.30;6.57;;;;;;;7.29;80.25;97465.06;4995082;28;20056;-61
2021/11/21 10:59:48;;;;;;;13.10;6.80;;;;;;;7.76;83.35;97464.22;4992777;28;20641;-61
2021/11/21 11:02:22;;;;;;;;;;;;;;;7.19;80.07;97458.53;4992545;28;20554;-63
2021/11/21 11:05:11;;;;;;;10.68;5.63;;;;;;;7.58;83.16;97454.53;4994974;28;19918;-59
2021/11/21 11:07:44;;;;;;;10.35;5.30;;;;;;;8.12;82.05;97453.28;4993379;28;20077;-58
2021/11/21 11:10:13;;;;;;;12.10;6.18;;;;;;;7.85;78.94;97456.06;4991486;28;20037;-59
2021/11/21 11:12:41;;;;;;;11.68;6.22;;;;;;;7.70;77.63;97454.06;4996362;28;20033;-58
2021/11/21 11:15:07;;;;;;;9.15;5.30;;;;;;;8.21;78.62;97454.69;4994426;28;20029;-59
2021/11/21 11:17:35;;;;;;;11.05;6.43;;;;;;;7.73;78.61;97454.78;4991796;28;20607;-62
2021/11/21 11:20:04;;;;;;;14.32;6.38;;;;;;;8.00;78.00;97453.78;4993639;28;20051;-59
2021/11/21 11:22:29;;;;;;;11.25;6.13;;;;;;;7.59;79.68;97458.81;4992934;28;20034;-61
2021/11/21 11:24:57;;;;;;;11.65;6.57;;;;;;;7.46;79.41;97446.31;4992497;28;20737;-58
2021/11/21 11:27:40;;;;;;;10.63;5.60;;;;;;;7.97;80.09;97440.91;4993197;28;20045;-60
2021/11/21 11:30:07;;;;;;;12.18;5.82;;;;;;;7.58;80.47;97449.34;4992386;28;20030;-58